sensor_id;sensor_type;location;lat;lon;timestamp;P1;durP1;ratioP1;P2;durP2;ratioP2
16075;SDS011;8142;48.242;11.644;2024-01-10T00:02:14;35.73;;;19.20;;
16075;SDS011;8142;48.242;11.644;2024-01-10T00:04:40;38.13;;;18.80;;
16075;SDS011;8142;48.242;11.644;2024-01-10T00:07:06;41.07;;;19.70;;
16075;SDS011;8142;48.242;11.644;2024-01-10T00:09:32;39.53;;;18.83;;
16075;SDS011;8142;48.242;11.644;2024-01-10T00:11:58;41.90;;;20.67;;
16075;SDS011;8142;48.242;11.644;2024-01-10T00:14:24;42.20;;;19.53;;
16075;SDS011;8142;48.242;11.644;2024-01-10T00:16:49;42.93;;;20.13;;
16075;SDS011;8142;48.242;11.644;2024-01-10T00:19:15;42.70;;;20.77;;
16075;SDS011;8142;48.242;11.644;2024-01-10T00:21:41;41.53;;;20.00;;
16075;SDS011;8142;48.242;11.644;2024-01-10T00:24:07;41.40;;;20.23;;
16075;SDS011;8142;48.242;11.644;2024-01-10T00:26:33;41.67;;;20.60;;
16075;SDS011;8142;48.242;11.644;2024-01-10T00:28:59;43.30;;;20.40;;
16075;SDS011;8142;48.242;11.644;2024-01-10T00:31:25;43.50;;;20.27;;
16075;SDS011;8142;48.242;11.644;2024-01-10T00:33:51;39.33;;;19.87;;
16075;SDS011;8142;48.242;11.644;2024-01-10T00:36:17;43.30;;;20.60;;
16075;SDS011;8142;48.242;11.644;2024-01-10T00:38:43;45.07;;;21.53;;
16075;SDS011;8142;48.242;11.644;2024-01-10T00:41:08;36.43;;;19.23;;
16075;SDS011;8142;48.242;11.644;2024-01-10T00:43:34;45.63;;;20.00;;
16075;SDS011;8142;48.242;11.644;2024-01-10T00:46:00;38.13;;;19.97;;
16075;SDS011;8142;48.242;11.644;2024-01-10T00:48:26;38.60;;;19.50;;
16075;SDS011;8142;48.242;11.644;2024-01-10T00:50:52;40.53;;;20.67;;
16075;SDS011;8142;48.242;11.644;2024-01-10T00:53:18;40.93;;;19.73;;
16075;SDS011;8142;48.242;11.644;2024-01-10T00:55:44;41.10;;;19.67;;
16075;SDS011;8142;48.242;11.644;2024-01-10T00:58:09;38.17;;;19.57;;
16075;SDS011;8142;48.242;11.644;2024-01-10T01:00:35;42.20;;;20.27;;
16075;SDS011;8142;48.242;11.644;2024-01-10T01:03:01;38.60;;;19.07;;
16075;SDS011;8142;48.242;11.644;2024-01-10T01:05:27;43.40;;;20.13;;
16075;SDS011;8142;48.242;11.644;2024-01-10T01:07:53;38.07;;;18.77;;
16075;SDS011;8142;48.242;11.644;2024-01-10T01:10:19;41.07;;;19.13;;
16075;SDS011;8142;48.242;11.644;2024-01-10T01:12:45;38.23;;;19.43;;
16075;SDS011;8142;48.242;11.644;2024-01-10T01:15:11;39.90;;;19.70;;
16075;SDS011;8142;48.242;11.644;2024-01-10T01:17:36;42.30;;;20.03;;
16075;SDS011;8142;48.242;11.644;2024-01-10T01:20:03;39.50;;;19.63;;
16075;SDS011;8142;48.242;11.644;2024-01-10T01:22:30;38.23;;;18.33;;
16075;SDS011;8142;48.242;11.644;2024-01-10T01:24:59;37.83;;;19.30;;
16075;SDS011;8142;48.242;11.644;2024-01-10T01:27:25;34.40;;;17.83;;
16075;SDS011;8142;48.242;11.644;2024-01-10T01:29:51;36.77;;;19.57;;
16075;SDS011;8142;48.242;11.644;2024-01-10T01:32:17;37.70;;;19.13;;
16075;SDS011;8142;48.242;11.644;2024-01-10T01:34:42;37.90;;;19.83;;
16075;SDS011;8142;48.242;11.644;2024-01-10T01:37:08;35.67;;;18.53;;
16075;SDS011;8142;48.242;11.644;2024-01-10T01:39:34;34.70;;;19.13;;
16075;SDS011;8142;48.242;11.644;2024-01-10T01:42:01;35.40;;;18.80;;
16075;SDS011;8142;48.242;11.644;2024-01-10T01:44:27;37.93;;;19.17;;
16075;SDS011;8142;48.242;11.644;2024-01-10T01:46:53;38.27;;;19.77;;
16075;SDS011;8142;48.242;11.644;2024-01-10T01:49:19;36.97;;;19.03;;
16075;SDS011;8142;48.242;11.644;2024-01-10T01:51:45;37.43;;;18.73;;
16075;SDS011;8142;48.242;11.644;2024-01-10T01:54:11;41.37;;;18.93;;
16075;SDS011;8142;48.242;11.644;2024-01-10T01:56:38;35.87;;;18.47;;
16075;SDS011;8142;48.242;11.644;2024-01-10T01:59:04;43.83;;;19.53;;
16075;SDS011;8142;48.242;11.644;2024-01-10T02:01:31;38.40;;;18.97;;
16075;SDS011;8142;48.242;11.644;2024-01-10T02:03:57;36.93;;;18.47;;
16075;SDS011;8142;48.242;11.644;2024-01-10T02:06:23;35.30;;;18.07;;
16075;SDS011;8142;48.242;11.644;2024-01-10T02:08:49;37.70;;;19.10;;
16075;SDS011;8142;48.242;11.644;2024-01-10T02:11:17;33.47;;;17.67;;
16075;SDS011;8142;48.242;11.644;2024-01-10T02:13:44;40.63;;;19.60;;
16075;SDS011;8142;48.242;11.644;2024-01-10T02:16:10;38.47;;;18.07;;
16075;SDS011;8142;48.242;11.644;2024-01-10T02:18:37;36.20;;;18.70;;
16075;SDS011;8142;48.242;11.644;2024-01-10T02:21:03;35.67;;;18.13;;
16075;SDS011;8142;48.242;11.644;2024-01-10T02:23:29;37.83;;;18.70;;
16075;SDS011;8142;48.242;11.644;2024-01-10T02:25:55;37.80;;;17.70;;
16075;SDS011;8142;48.242;11.644;2024-01-10T02:28:21;35.03;;;18.03;;
16075;SDS011;8142;48.242;11.644;2024-01-10T02:30:49;38.97;;;18.73;;
16075;SDS011;8142;48.242;11.644;2024-01-10T02:33:16;39.40;;;18.53;;
16075;SDS011;8142;48.242;11.644;2024-01-10T02:35:42;38.30;;;18.77;;
16075;SDS011;8142;48.242;11.644;2024-01-10T02:38:08;36.73;;;17.97;;
16075;SDS011;8142;48.242;11.644;2024-01-10T02:40:34;33.77;;;17.67;;
16075;SDS011;8142;48.242;11.644;2024-01-10T02:43:00;34.10;;;17.40;;
16075;SDS011;8142;48.242;11.644;2024-01-10T02:45:26;34.47;;;17.97;;
16075;SDS011;8142;48.242;11.644;2024-01-10T02:47:52;35.83;;;18.20;;
16075;SDS011;8142;48.242;11.644;2024-01-10T02:50:17;34.37;;;17.60;;
16075;SDS011;8142;48.242;11.644;2024-01-10T02:52:44;35.23;;;17.87;;
16075;SDS011;8142;48.242;11.644;2024-01-10T02:55:09;33.43;;;17.80;;
16075;SDS011;8142;48.242;11.644;2024-01-10T02:57:36;36.93;;;18.90;;
16075;SDS011;8142;48.242;11.644;2024-01-10T03:00:02;38.40;;;17.60;;
16075;SDS011;8142;48.242;11.644;2024-01-10T03:02:34;35.73;;;17.70;;
16075;SDS011;8142;48.242;11.644;2024-01-10T03:05:00;35.83;;;18.27;;
16075;SDS011;8142;48.242;11.644;2024-01-10T03:07:26;39.20;;;18.20;;
16075;SDS011;8142;48.242;11.644;2024-01-10T03:09:52;37.20;;;17.57;;
16075;SDS011;8142;48.242;11.644;2024-01-10T03:12:18;34.07;;;17.90;;
16075;SDS011;8142;48.242;11.644;2024-01-10T03:14:43;35.43;;;18.00;;
16075;SDS011;8142;48.242;11.644;2024-01-10T03:17:09;38.77;;;18.77;;
16075;SDS011;8142;48.242;11.644;2024-01-10T03:19:35;35.80;;;18.37;;
16075;SDS011;8142;48.242;11.644;2024-01-10T03:22:10;35.73;;;18.53;;
16075;SDS011;8142;48.242;11.644;2024-01-10T03:24:38;39.20;;;18.77;;
16075;SDS011;8142;48.242;11.644;2024-01-10T03:27:04;36.17;;;18.00;;
16075;SDS011;8142;48.242;11.644;2024-01-10T03:29:32;36.40;;;18.37;;
16075;SDS011;8142;48.242;11.644;2024-01-10T03:31:57;40.03;;;18.60;;
16075;SDS011;8142;48.242;11.644;2024-01-10T03:34:24;38.20;;;17.23;;
16075;SDS011;8142;48.242;11.644;2024-01-10T03:36:50;35.37;;;17.87;;
16075;SDS011;8142;48.242;11.644;2024-01-10T03:39:16;36.00;;;17.67;;
16075;SDS011;8142;48.242;11.644;2024-01-10T03:41:42;38.37;;;18.13;;
16075;SDS011;8142;48.242;11.644;2024-01-10T03:44:08;38.23;;;18.50;;
16075;SDS011;8142;48.242;11.644;2024-01-10T03:46:35;35.83;;;17.67;;
16075;SDS011;8142;48.242;11.644;2024-01-10T03:49:02;34.67;;;17.30;;
16075;SDS011;8142;48.242;11.644;2024-01-10T03:51:28;37.87;;;17.17;;
16075;SDS011;8142;48.242;11.644;2024-01-10T03:53:54;38.80;;;18.37;;
16075;SDS011;8142;48.242;11.644;2024-01-10T03:56:20;41.30;;;18.37;;
16075;SDS011;8142;48.242;11.644;2024-01-10T03:58:46;39.60;;;18.57;;
16075;SDS011;8142;48.242;11.644;2024-01-10T04:01:15;43.47;;;19.30;;
16075;SDS011;8142;48.242;11.644;2024-01-10T04:03:41;43.23;;;19.93;;
16075;SDS011;8142;48.242;11.644;2024-01-10T04:06:07;39.00;;;19.50;;
16075;SDS011;8142;48.242;11.644;2024-01-10T04:08:34;48.83;;;19.83;;
16075;SDS011;8142;48.242;11.644;2024-01-10T04:11:01;45.87;;;20.07;;
16075;SDS011;8142;48.242;11.644;2024-01-10T04:13:29;44.93;;;19.50;;
16075;SDS011;8142;48.242;11.644;2024-01-10T04:15:55;40.30;;;18.80;;
16075;SDS011;8142;48.242;11.644;2024-01-10T04:18:20;46.13;;;19.50;;
16075;SDS011;8142;48.242;11.644;2024-01-10T04:20:47;39.23;;;18.53;;
16075;SDS011;8142;48.242;11.644;2024-01-10T04:23:14;45.20;;;19.00;;
16075;SDS011;8142;48.242;11.644;2024-01-10T04:25:40;43.20;;;19.73;;
16075;SDS011;8142;48.242;11.644;2024-01-10T04:28:06;46.90;;;19.50;;
16075;SDS011;8142;48.242;11.644;2024-01-10T04:30:32;45.87;;;20.33;;
16075;SDS011;8142;48.242;11.644;2024-01-10T04:33:00;45.80;;;20.43;;
16075;SDS011;8142;48.242;11.644;2024-01-10T04:35:27;45.97;;;20.40;;
16075;SDS011;8142;48.242;11.644;2024-01-10T04:37:53;46.30;;;19.37;;
16075;SDS011;8142;48.242;11.644;2024-01-10T04:40:19;46.57;;;20.03;;
16075;SDS011;8142;48.242;11.644;2024-01-10T04:42:45;48.60;;;20.23;;
16075;SDS011;8142;48.242;11.644;2024-01-10T04:45:11;47.73;;;19.57;;
16075;SDS011;8142;48.242;11.644;2024-01-10T04:47:37;41.30;;;17.57;;
16075;SDS011;8142;48.242;11.644;2024-01-10T04:50:03;44.80;;;18.93;;
16075;SDS011;8142;48.242;11.644;2024-01-10T04:52:30;46.43;;;20.07;;
16075;SDS011;8142;48.242;11.644;2024-01-10T04:54:56;47.80;;;20.93;;
16075;SDS011;8142;48.242;11.644;2024-01-10T04:57:24;50.10;;;21.33;;
16075;SDS011;8142;48.242;11.644;2024-01-10T04:59:50;43.23;;;18.93;;
16075;SDS011;8142;48.242;11.644;2024-01-10T05:02:16;50.97;;;21.67;;
16075;SDS011;8142;48.242;11.644;2024-01-10T05:04:42;50.73;;;20.57;;
16075;SDS011;8142;48.242;11.644;2024-01-10T05:07:08;52.97;;;20.90;;
16075;SDS011;8142;48.242;11.644;2024-01-10T05:09:34;49.77;;;20.30;;
16075;SDS011;8142;48.242;11.644;2024-01-10T05:12:00;53.30;;;21.47;;
16075;SDS011;8142;48.242;11.644;2024-01-10T05:14:26;50.70;;;21.23;;
16075;SDS011;8142;48.242;11.644;2024-01-10T05:16:52;49.70;;;21.47;;
16075;SDS011;8142;48.242;11.644;2024-01-10T05:19:19;46.47;;;20.47;;
16075;SDS011;8142;48.242;11.644;2024-01-10T05:21:48;51.33;;;20.87;;
16075;SDS011;8142;48.242;11.644;2024-01-10T05:24:14;48.03;;;19.83;;
16075;SDS011;8142;48.242;11.644;2024-01-10T05:26:40;50.17;;;21.03;;
16075;SDS011;8142;48.242;11.644;2024-01-10T05:29:06;47.20;;;20.53;;
16075;SDS011;8142;48.242;11.644;2024-01-10T05:31:33;51.57;;;20.80;;
16075;SDS011;8142;48.242;11.644;2024-01-10T05:33:59;49.67;;;20.23;;
16075;SDS011;8142;48.242;11.644;2024-01-10T05:36:25;50.67;;;20.10;;
16075;SDS011;8142;48.242;11.644;2024-01-10T05:38:51;47.87;;;19.83;;
16075;SDS011;8142;48.242;11.644;2024-01-10T05:41:17;54.80;;;20.13;;
16075;SDS011;8142;48.242;11.644;2024-01-10T05:43:44;53.77;;;20.33;;
16075;SDS011;8142;48.242;11.644;2024-01-10T05:46:13;51.50;;;20.17;;
16075;SDS011;8142;48.242;11.644;2024-01-10T05:48:41;53.37;;;21.27;;
16075;SDS011;8142;48.242;11.644;2024-01-10T05:51:07;58.93;;;21.83;;
16075;SDS011;8142;48.242;11.644;2024-01-10T05:53:33;52.63;;;21.57;;
16075;SDS011;8142;48.242;11.644;2024-01-10T05:55:59;49.80;;;20.97;;
16075;SDS011;8142;48.242;11.644;2024-01-10T05:58:25;50.90;;;20.17;;
16075;SDS011;8142;48.242;11.644;2024-01-10T06:00:51;48.87;;;20.33;;
16075;SDS011;8142;48.242;11.644;2024-01-10T06:03:17;51.27;;;19.77;;
16075;SDS011;8142;48.242;11.644;2024-01-10T06:05:43;45.43;;;19.97;;
16075;SDS011;8142;48.242;11.644;2024-01-10T06:08:10;47.33;;;20.40;;
16075;SDS011;8142;48.242;11.644;2024-01-10T06:10:37;50.30;;;20.20;;
16075;SDS011;8142;48.242;11.644;2024-01-10T06:13:03;48.60;;;19.30;;
16075;SDS011;8142;48.242;11.644;2024-01-10T06:15:29;49.43;;;20.27;;
16075;SDS011;8142;48.242;11.644;2024-01-10T06:17:55;47.47;;;19.00;;
16075;SDS011;8142;48.242;11.644;2024-01-10T06:20:21;44.37;;;18.03;;
16075;SDS011;8142;48.242;11.644;2024-01-10T06:22:47;43.90;;;18.40;;
16075;SDS011;8142;48.242;11.644;2024-01-10T06:25:13;41.33;;;18.77;;
16075;SDS011;8142;48.242;11.644;2024-01-10T06:27:39;48.97;;;19.43;;
16075;SDS011;8142;48.242;11.644;2024-01-10T06:30:06;44.53;;;19.30;;
16075;SDS011;8142;48.242;11.644;2024-01-10T06:32:39;49.73;;;19.07;;
16075;SDS011;8142;48.242;11.644;2024-01-10T06:35:05;45.10;;;19.50;;
16075;SDS011;8142;48.242;11.644;2024-01-10T06:37:31;46.37;;;17.97;;
16075;SDS011;8142;48.242;11.644;2024-01-10T06:39:57;43.53;;;17.73;;
16075;SDS011;8142;48.242;11.644;2024-01-10T06:42:23;39.20;;;17.00;;
16075;SDS011;8142;48.242;11.644;2024-01-10T06:44:49;43.97;;;18.77;;
16075;SDS011;8142;48.242;11.644;2024-01-10T06:47:15;43.40;;;18.90;;
16075;SDS011;8142;48.242;11.644;2024-01-10T06:49:41;46.77;;;19.13;;
16075;SDS011;8142;48.242;11.644;2024-01-10T06:52:07;44.80;;;18.57;;
16075;SDS011;8142;48.242;11.644;2024-01-10T06:54:34;44.87;;;18.37;;
16075;SDS011;8142;48.242;11.644;2024-01-10T06:57:01;47.60;;;18.43;;
16075;SDS011;8142;48.242;11.644;2024-01-10T06:59:28;46.63;;;19.77;;
16075;SDS011;8142;48.242;11.644;2024-01-10T07:01:53;45.43;;;18.70;;
16075;SDS011;8142;48.242;11.644;2024-01-10T07:04:22;46.40;;;18.73;;
16075;SDS011;8142;48.242;11.644;2024-01-10T07:06:49;40.90;;;18.17;;
16075;SDS011;8142;48.242;11.644;2024-01-10T07:09:15;47.33;;;18.53;;
16075;SDS011;8142;48.242;11.644;2024-01-10T07:11:45;45.60;;;17.63;;
16075;SDS011;8142;48.242;11.644;2024-01-10T07:14:15;44.23;;;17.87;;
16075;SDS011;8142;48.242;11.644;2024-01-10T07:16:41;40.97;;;17.57;;
16075;SDS011;8142;48.242;11.644;2024-01-10T07:19:13;42.53;;;17.97;;
16075;SDS011;8142;48.242;11.644;2024-01-10T07:21:40;41.93;;;18.40;;
16075;SDS011;8142;48.242;11.644;2024-01-10T07:24:07;45.10;;;17.77;;
16075;SDS011;8142;48.242;11.644;2024-01-10T07:26:37;44.60;;;18.67;;
16075;SDS011;8142;48.242;11.644;2024-01-10T07:29:03;43.30;;;18.30;;
16075;SDS011;8142;48.242;11.644;2024-01-10T07:31:29;45.40;;;17.87;;
16075;SDS011;8142;48.242;11.644;2024-01-10T07:33:56;39.60;;;18.37;;
16075;SDS011;8142;48.242;11.644;2024-01-10T07:36:24;45.67;;;19.20;;
16075;SDS011;8142;48.242;11.644;2024-01-10T07:38:58;41.10;;;16.60;;
16075;SDS011;8142;48.242;11.644;2024-01-10T07:41:24;42.77;;;17.17;;
16075;SDS011;8142;48.242;11.644;2024-01-10T07:43:51;43.53;;;17.30;;
16075;SDS011;8142;48.242;11.644;2024-01-10T07:46:17;41.57;;;17.20;;
16075;SDS011;8142;48.242;11.644;2024-01-10T07:48:43;44.60;;;17.87;;
16075;SDS011;8142;48.242;11.644;2024-01-10T07:51:09;44.07;;;17.33;;
16075;SDS011;8142;48.242;11.644;2024-01-10T07:53:35;41.20;;;16.10;;
16075;SDS011;8142;48.242;11.644;2024-01-10T07:56:02;42.60;;;17.57;;
16075;SDS011;8142;48.242;11.644;2024-01-10T07:58:29;46.27;;;17.87;;
16075;SDS011;8142;48.242;11.644;2024-01-10T08:00:55;43.03;;;17.03;;
16075;SDS011;8142;48.242;11.644;2024-01-10T08:03:21;42.33;;;17.87;;
16075;SDS011;8142;48.242;11.644;2024-01-10T08:05:47;45.10;;;18.33;;
16075;SDS011;8142;48.242;11.644;2024-01-10T08:08:14;41.77;;;17.63;;
16075;SDS011;8142;48.242;11.644;2024-01-10T08:10:42;43.07;;;18.43;;
16075;SDS011;8142;48.242;11.644;2024-01-10T08:13:08;44.07;;;18.57;;
16075;SDS011;8142;48.242;11.644;2024-01-10T08:15:34;43.63;;;18.33;;
16075;SDS011;8142;48.242;11.644;2024-01-10T08:18:00;43.07;;;17.97;;
16075;SDS011;8142;48.242;11.644;2024-01-10T08:20:29;44.93;;;17.77;;
16075;SDS011;8142;48.242;11.644;2024-01-10T08:22:55;44.57;;;17.93;;
16075;SDS011;8142;48.242;11.644;2024-01-10T08:25:21;39.67;;;17.33;;
16075;SDS011;8142;48.242;11.644;2024-01-10T08:27:47;43.23;;;17.77;;
16075;SDS011;8142;48.242;11.644;2024-01-10T08:30:14;39.17;;;16.97;;
16075;SDS011;8142;48.242;11.644;2024-01-10T08:32:40;40.23;;;18.10;;
16075;SDS011;8142;48.242;11.644;2024-01-10T08:35:06;42.53;;;18.23;;
16075;SDS011;8142;48.242;11.644;2024-01-10T08:37:34;44.17;;;18.00;;
16075;SDS011;8142;48.242;11.644;2024-01-10T08:40:00;47.63;;;18.27;;
16075;SDS011;8142;48.242;11.644;2024-01-10T08:42:32;47.67;;;18.60;;
16075;SDS011;8142;48.242;11.644;2024-01-10T08:44:58;41.50;;;17.83;;
16075;SDS011;8142;48.242;11.644;2024-01-10T08:47:24;44.63;;;18.83;;
16075;SDS011;8142;48.242;11.644;2024-01-10T08:49:50;42.93;;;18.13;;
16075;SDS011;8142;48.242;11.644;2024-01-10T08:52:16;43.60;;;18.30;;
16075;SDS011;8142;48.242;11.644;2024-01-10T08:54:42;42.20;;;18.10;;
16075;SDS011;8142;48.242;11.644;2024-01-10T08:57:08;45.27;;;17.73;;
16075;SDS011;8142;48.242;11.644;2024-01-10T08:59:34;42.90;;;17.60;;
16075;SDS011;8142;48.242;11.644;2024-01-10T09:02:00;46.57;;;18.00;;
16075;SDS011;8142;48.242;11.644;2024-01-10T09:04:26;42.90;;;17.63;;
16075;SDS011;8142;48.242;11.644;2024-01-10T09:06:51;41.50;;;17.90;;
16075;SDS011;8142;48.242;11.644;2024-01-10T09:09:17;43.37;;;17.70;;
16075;SDS011;8142;48.242;11.644;2024-01-10T09:11:46;43.83;;;18.47;;
16075;SDS011;8142;48.242;11.644;2024-01-10T09:14:16;46.60;;;18.43;;
16075;SDS011;8142;48.242;11.644;2024-01-10T09:16:42;42.90;;;18.67;;
16075;SDS011;8142;48.242;11.644;2024-01-10T09:19:08;48.93;;;19.43;;
16075;SDS011;8142;48.242;11.644;2024-01-10T09:21:35;42.50;;;18.13;;
16075;SDS011;8142;48.242;11.644;2024-01-10T09:24:00;41.97;;;18.47;;
16075;SDS011;8142;48.242;11.644;2024-01-10T09:26:30;48.40;;;19.40;;
16075;SDS011;8142;48.242;11.644;2024-01-10T09:28:56;41.07;;;18.03;;
16075;SDS011;8142;48.242;11.644;2024-01-10T09:31:22;48.67;;;20.20;;
16075;SDS011;8142;48.242;11.644;2024-01-10T09:33:48;44.93;;;18.27;;
16075;SDS011;8142;48.242;11.644;2024-01-10T09:36:14;46.90;;;18.90;;
16075;SDS011;8142;48.242;11.644;2024-01-10T09:38:40;50.03;;;19.63;;
16075;SDS011;8142;48.242;11.644;2024-01-10T09:41:06;48.43;;;20.10;;
16075;SDS011;8142;48.242;11.644;2024-01-10T09:43:32;46.70;;;19.63;;
16075;SDS011;8142;48.242;11.644;2024-01-10T09:46:01;43.27;;;18.37;;
16075;SDS011;8142;48.242;11.644;2024-01-10T09:48:30;47.60;;;19.60;;
16075;SDS011;8142;48.242;11.644;2024-01-10T09:50:57;46.67;;;19.37;;
16075;SDS011;8142;48.242;11.644;2024-01-10T09:53:23;46.20;;;19.87;;
16075;SDS011;8142;48.242;11.644;2024-01-10T09:55:52;44.00;;;18.17;;
16075;SDS011;8142;48.242;11.644;2024-01-10T09:58:25;45.10;;;19.17;;
16075;SDS011;8142;48.242;11.644;2024-01-10T10:00:51;48.33;;;19.73;;
16075;SDS011;8142;48.242;11.644;2024-01-10T10:03:17;47.60;;;20.37;;
16075;SDS011;8142;48.242;11.644;2024-01-10T10:05:44;50.63;;;20.93;;
16075;SDS011;8142;48.242;11.644;2024-01-10T10:08:11;46.30;;;19.03;;
16075;SDS011;8142;48.242;11.644;2024-01-10T10:10:40;50.80;;;20.90;;
16075;SDS011;8142;48.242;11.644;2024-01-10T10:13:12;47.43;;;19.37;;
16075;SDS011;8142;48.242;11.644;2024-01-10T10:16:02;52.07;;;21.03;;
16075;SDS011;8142;48.242;11.644;2024-01-10T10:18:29;49.50;;;20.93;;
16075;SDS011;8142;48.242;11.644;2024-01-10T10:21:10;51.07;;;20.83;;
16075;SDS011;8142;48.242;11.644;2024-01-10T10:23:37;49.23;;;21.07;;
16075;SDS011;8142;48.242;11.644;2024-01-10T10:26:14;51.80;;;21.50;;
16075;SDS011;8142;48.242;11.644;2024-01-10T10:28:47;44.47;;;19.60;;
16075;SDS011;8142;48.242;11.644;2024-01-10T10:31:14;54.90;;;20.40;;
16075;SDS011;8142;48.242;11.644;2024-01-10T10:33:44;51.67;;;20.97;;
16075;SDS011;8142;48.242;11.644;2024-01-10T10:36:10;51.47;;;20.77;;
16075;SDS011;8142;48.242;11.644;2024-01-10T10:38:39;48.07;;;19.93;;
16075;SDS011;8142;48.242;11.644;2024-01-10T10:41:05;49.97;;;20.60;;
16075;SDS011;8142;48.242;11.644;2024-01-10T10:43:36;52.03;;;20.63;;
16075;SDS011;8142;48.242;11.644;2024-01-10T10:46:08;48.70;;;20.47;;
16075;SDS011;8142;48.242;11.644;2024-01-10T10:48:37;46.87;;;20.07;;
16075;SDS011;8142;48.242;11.644;2024-01-10T10:51:05;48.03;;;20.87;;
16075;SDS011;8142;48.242;11.644;2024-01-10T10:53:38;47.07;;;20.13;;
16075;SDS011;8142;48.242;11.644;2024-01-10T10:56:06;47.50;;;20.23;;
16075;SDS011;8142;48.242;11.644;2024-01-10T10:58:39;47.90;;;20.13;;
16075;SDS011;8142;48.242;11.644;2024-01-10T11:01:07;47.60;;;19.43;;
16075;SDS011;8142;48.242;11.644;2024-01-10T11:03:35;51.13;;;21.03;;
16075;SDS011;8142;48.242;11.644;2024-01-10T11:06:02;47.30;;;19.77;;
16075;SDS011;8142;48.242;11.644;2024-01-10T11:08:30;52.37;;;20.33;;
16075;SDS011;8142;48.242;11.644;2024-01-10T11:11:04;46.83;;;19.27;;
16075;SDS011;8142;48.242;11.644;2024-01-10T11:19:32;46.00;;;19.10;;
16075;SDS011;8142;48.242;11.644;2024-01-10T11:25:05;47.20;;;19.80;;
16075;SDS011;8142;48.242;11.644;2024-01-10T11:27:32;45.83;;;19.63;;
16075;SDS011;8142;48.242;11.644;2024-01-10T11:29:58;45.90;;;19.23;;
16075;SDS011;8142;48.242;11.644;2024-01-10T11:32:25;46.07;;;19.67;;
16075;SDS011;8142;48.242;11.644;2024-01-10T11:34:59;48.20;;;20.30;;
16075;SDS011;8142;48.242;11.644;2024-01-10T11:37:38;48.40;;;21.47;;
16075;SDS011;8142;48.242;11.644;2024-01-10T11:40:09;56.67;;;20.50;;
16075;SDS011;8142;48.242;11.644;2024-01-10T11:42:43;53.00;;;21.43;;
16075;SDS011;8142;48.242;11.644;2024-01-10T11:47:56;48.63;;;20.67;;
16075;SDS011;8142;48.242;11.644;2024-01-10T11:50:23;50.70;;;21.33;;
16075;SDS011;8142;48.242;11.644;2024-01-10T11:52:52;48.80;;;21.63;;
16075;SDS011;8142;48.242;11.644;2024-01-10T11:56:20;43.57;;;20.03;;
16075;SDS011;8142;48.242;11.644;2024-01-10T11:58:18;47.27;;;21.20;;
16075;SDS011;8142;48.242;11.644;2024-01-10T12:00:44;50.97;;;21.87;;
16075;SDS011;8142;48.242;11.644;2024-01-10T12:03:11;51.80;;;21.87;;
16075;SDS011;8142;48.242;11.644;2024-01-10T12:05:38;52.67;;;21.47;;
16075;SDS011;8142;48.242;11.644;2024-01-10T12:08:10;50.00;;;20.87;;
16075;SDS011;8142;48.242;11.644;2024-01-10T12:10:36;51.63;;;20.97;;
16075;SDS011;8142;48.242;11.644;2024-01-10T12:13:05;52.00;;;21.90;;
16075;SDS011;8142;48.242;11.644;2024-01-10T12:15:31;51.83;;;22.03;;
16075;SDS011;8142;48.242;11.644;2024-01-10T12:17:57;53.70;;;22.73;;
16075;SDS011;8142;48.242;11.644;2024-01-10T12:20:24;49.97;;;21.57;;
16075;SDS011;8142;48.242;11.644;2024-01-10T12:22:50;47.50;;;20.00;;
16075;SDS011;8142;48.242;11.644;2024-01-10T12:25:17;48.63;;;21.30;;
16075;SDS011;8142;48.242;11.644;2024-01-10T12:27:44;48.90;;;21.37;;
16075;SDS011;8142;48.242;11.644;2024-01-10T12:30:10;50.00;;;22.17;;
16075;SDS011;8142;48.242;11.644;2024-01-10T12:32:36;48.03;;;21.57;;
16075;SDS011;8142;48.242;11.644;2024-01-10T12:35:02;52.73;;;21.80;;
16075;SDS011;8142;48.242;11.644;2024-01-10T12:37:30;49.63;;;20.90;;
16075;SDS011;8142;48.242;11.644;2024-01-10T12:39:56;47.17;;;21.30;;
16075;SDS011;8142;48.242;11.644;2024-01-10T12:42:22;47.37;;;20.40;;
16075;SDS011;8142;48.242;11.644;2024-01-10T12:44:49;51.17;;;21.00;;
16075;SDS011;8142;48.242;11.644;2024-01-10T12:47:19;47.67;;;20.57;;
16075;SDS011;8142;48.242;11.644;2024-01-10T12:49:49;56.40;;;21.07;;
16075;SDS011;8142;48.242;11.644;2024-01-10T12:52:15;48.57;;;21.23;;
16075;SDS011;8142;48.242;11.644;2024-01-10T12:54:41;50.43;;;20.90;;
16075;SDS011;8142;48.242;11.644;2024-01-10T12:57:07;48.90;;;20.57;;
16075;SDS011;8142;48.242;11.644;2024-01-10T12:59:33;47.77;;;19.63;;
16075;SDS011;8142;48.242;11.644;2024-01-10T13:01:59;45.63;;;20.50;;
16075;SDS011;8142;48.242;11.644;2024-01-10T13:04:25;47.83;;;19.83;;
16075;SDS011;8142;48.242;11.644;2024-01-10T13:06:52;47.30;;;21.87;;
16075;SDS011;8142;48.242;11.644;2024-01-10T13:09:18;46.87;;;19.77;;
16075;SDS011;8142;48.242;11.644;2024-01-10T13:11:44;48.80;;;21.40;;
16075;SDS011;8142;48.242;11.644;2024-01-10T13:14:11;48.60;;;21.37;;
16075;SDS011;8142;48.242;11.644;2024-01-10T13:16:37;50.00;;;21.50;;
16075;SDS011;8142;48.242;11.644;2024-01-10T13:19:03;55.97;;;21.27;;
16075;SDS011;8142;48.242;11.644;2024-01-10T13:21:29;53.43;;;22.07;;
16075;SDS011;8142;48.242;11.644;2024-01-10T13:23:55;55.77;;;22.30;;
16075;SDS011;8142;48.242;11.644;2024-01-10T13:26:21;53.50;;;21.57;;
16075;SDS011;8142;48.242;11.644;2024-01-10T13:28:47;55.87;;;22.43;;
16075;SDS011;8142;48.242;11.644;2024-01-10T13:31:14;51.10;;;21.40;;
16075;SDS011;8142;48.242;11.644;2024-01-10T13:33:42;47.60;;;20.70;;
16075;SDS011;8142;48.242;11.644;2024-01-10T13:36:08;51.53;;;21.93;;
16075;SDS011;8142;48.242;11.644;2024-01-10T13:38:34;55.90;;;22.33;;
16075;SDS011;8142;48.242;11.644;2024-01-10T13:41:00;54.43;;;23.70;;
16075;SDS011;8142;48.242;11.644;2024-01-10T13:43:27;57.37;;;22.80;;
16075;SDS011;8142;48.242;11.644;2024-01-10T13:45:53;54.03;;;22.07;;
16075;SDS011;8142;48.242;11.644;2024-01-10T13:48:19;48.77;;;20.60;;
16075;SDS011;8142;48.242;11.644;2024-01-10T13:50:45;49.17;;;20.63;;
16075;SDS011;8142;48.242;11.644;2024-01-10T13:53:12;52.00;;;21.20;;
16075;SDS011;8142;48.242;11.644;2024-01-10T13:55:38;52.23;;;21.03;;
16075;SDS011;8142;48.242;11.644;2024-01-10T13:58:04;54.73;;;21.80;;
16075;SDS011;8142;48.242;11.644;2024-01-10T14:00:30;57.43;;;22.80;;
16075;SDS011;8142;48.242;11.644;2024-01-10T14:02:56;53.13;;;21.77;;
16075;SDS011;8142;48.242;11.644;2024-01-10T14:05:28;54.07;;;20.80;;
16075;SDS011;8142;48.242;11.644;2024-01-10T14:07:54;49.90;;;20.03;;
16075;SDS011;8142;48.242;11.644;2024-01-10T14:10:21;51.67;;;22.17;;
16075;SDS011;8142;48.242;11.644;2024-01-10T14:12:48;49.70;;;19.93;;
16075;SDS011;8142;48.242;11.644;2024-01-10T14:15:13;54.73;;;22.33;;
16075;SDS011;8142;48.242;11.644;2024-01-10T14:17:40;55.47;;;21.27;;
16075;SDS011;8142;48.242;11.644;2024-01-10T14:20:07;49.57;;;20.17;;
16075;SDS011;8142;48.242;11.644;2024-01-10T14:22:36;55.17;;;21.43;;
16075;SDS011;8142;48.242;11.644;2024-01-10T14:25:02;60.27;;;22.20;;
16075;SDS011;8142;48.242;11.644;2024-01-10T14:27:29;55.63;;;20.70;;
16075;SDS011;8142;48.242;11.644;2024-01-10T14:29:55;59.97;;;22.77;;
16075;SDS011;8142;48.242;11.644;2024-01-10T14:32:21;57.13;;;21.37;;